createdAt,value
2019-02-12T00:00:57.951Z,94.74
2019-02-12T00:01:57.935Z,94.74
2019-02-12T00:02:57.934Z,94.65
2019-02-12T00:03:57.917Z,95.03
2019-02-12T00:04:57.906Z,94.93
2019-02-12T00:05:57.894Z,95.03
2019-02-12T00:06:57.887Z,95.31
2019-02-12T00:07:57.874Z,95.31
2019-02-12T00:08:57.866Z,95.22
2019-02-12T00:09:57.854Z,95.03
2019-02-12T00:10:57.844Z,94.93
2019-02-12T00:11:57.829Z,95.88
2019-02-12T00:12:57.820Z,95.12
2019-02-12T00:13:57.808Z,95.31
2019-02-12T00:14:57.803Z,95.88
2019-02-12T00:15:57.787Z,95.79
2019-02-12T00:16:57.778Z,95.50
2019-02-12T00:17:57.768Z,95.60
2019-02-12T00:18:57.756Z,95.79
2019-02-12T00:19:57.745Z,95.50
2019-02-12T00:20:57.735Z,95.98
2019-02-12T00:21:57.725Z,96.17
2019-02-12T00:22:57.710Z,96.26
2019-02-12T00:23:57.703Z,96.26
2019-02-12T00:24:57.689Z,96.64
2019-02-12T00:25:57.697Z,96.83
2019-02-12T00:26:57.672Z,97.02
2019-02-12T00:27:57.658Z,97.30
2019-02-12T00:28:57.647Z,97.40
2019-02-12T00:29:57.640Z,98.06
2019-02-12T00:30:57.624Z,97.78
2019-02-12T00:31:57.612Z,97.97
2019-02-12T00:32:57.609Z,97.59
2019-02-12T00:33:57.597Z,97.49
2019-02-12T00:34:57.582Z,97.78
2019-02-12T00:35:57.569Z,98.44
2019-02-12T00:36:57.558Z,98.35
2019-02-12T00:37:57.546Z,99.10
2019-02-12T00:38:57.540Z,98.63
2019-02-12T00:39:57.528Z,98.54
2019-02-12T00:40:57.516Z,99.20
2019-02-12T00:41:57.507Z,98.91
2019-02-12T00:42:57.497Z,98.72
2019-02-12T00:43:57.483Z,98.82
2019-02-12T00:44:57.477Z,99.20
2019-02-12T00:45:57.464Z,99.10
2019-02-12T00:46:57.451Z,99.29
2019-02-12T00:47:57.447Z,99.58
2019-02-12T00:48:57.431Z,99.96
2019-02-12T00:49:57.420Z,99.48
2019-02-12T00:50:57.415Z,99.67
2019-02-12T00:51:57.402Z,99.96
2019-02-12T00:52:57.387Z,99.99
2019-02-12T00:53:57.377Z,99.99
2019-02-12T00:54:57.368Z,99.99
2019-02-12T00:55:57.357Z,99.99
2019-02-12T00:56:57.349Z,99.99
2019-02-12T00:57:57.333Z,99.99
2019-02-12T00:58:57.322Z,99.99
2019-02-12T00:59:57.312Z,99.99
2019-02-12T01:00:57.300Z,99.99
2019-02-12T01:01:57.290Z,99.99
2019-02-12T01:02:57.280Z,99.99
2019-02-12T01:03:57.266Z,99.99
2019-02-12T01:04:57.254Z,99.99
2019-02-12T01:05:57.249Z,99.99
2019-02-12T01:06:57.235Z,99.99
2019-02-12T01:07:57.223Z,99.99
2019-02-12T01:08:57.216Z,99.99
2019-02-12T01:09:57.201Z,99.99
2019-02-12T01:10:57.192Z,99.99
2019-02-12T01:11:57.183Z,99.99
2019-02-12T01:12:57.172Z,99.99
2019-02-12T01:13:57.157Z,99.99
2019-02-12T01:14:57.144Z,99.99
2019-02-12T01:15:57.135Z,99.99
2019-02-12T01:16:57.132Z,99.99
2019-02-12T01:17:57.117Z,99.99
2019-02-12T01:18:57.105Z,99.99
2019-02-12T01:19:57.104Z,99.99
2019-02-12T01:20:57.087Z,99.99
2019-02-12T01:21:57.070Z,99.99
2019-02-12T01:22:57.062Z,99.99
2019-02-12T01:23:57.052Z,99.99
2019-02-12T01:24:57.039Z,99.99
2019-02-12T01:25:57.027Z,99.99
2019-02-12T01:26:57.022Z,99.99
2019-02-12T01:27:57.003Z,99.99
2019-02-12T01:28:56.996Z,99.99
2019-02-12T01:29:56.996Z,99.99
2019-02-12T01:30:56.974Z,99.99
2019-02-12T01:31:56.961Z,99.99
2019-02-12T01:32:56.950Z,99.99
2019-02-12T01:33:56.939Z,99.99
2019-02-12T01:34:56.929Z,99.99
2019-02-12T01:35:56.917Z,99.99
2019-02-12T01:36:56.910Z,99.99
2019-02-12T01:37:56.896Z,99.99
2019-02-12T01:38:56.883Z,99.99
2019-02-12T01:39:56.877Z,99.99
2019-02-12T01:40:56.864Z,99.99
2019-02-12T01:41:56.851Z,99.99
2019-02-12T01:42:56.845Z,99.99
2019-02-12T01:43:56.832Z,99.99
2019-02-12T01:44:56.820Z,99.99
2019-02-12T01:45:56.808Z,99.99
2019-02-12T01:46:56.800Z,99.99
2019-02-12T01:47:56.785Z,99.99
2019-02-12T01:48:56.774Z,99.99
2019-02-12T01:49:56.764Z,99.99
2019-02-12T01:50:56.753Z,99.99
2019-02-12T01:51:56.743Z,99.99
2019-02-12T01:52:56.731Z,99.99
2019-02-12T01:53:56.721Z,99.99
2019-02-12T01:54:56.717Z,99.99
2019-02-12T01:55:56.717Z,99.99
2019-02-12T01:56:56.688Z,99.99
2019-02-12T01:57:56.681Z,99.99
2019-02-12T01:58:56.670Z,99.99
2019-02-12T01:59:56.655Z,99.99
2019-02-12T02:00:56.650Z,99.99
2019-02-12T02:01:56.633Z,99.99
2019-02-12T02:02:56.624Z,99.99
2019-02-12T02:03:56.613Z,99.99
2019-02-12T02:04:56.606Z,99.99
2019-02-12T02:05:56.625Z,99.99
2019-02-12T02:06:56.579Z,99.99
2019-02-12T02:07:56.567Z,99.99
2019-02-12T02:08:56.556Z,99.99
2019-02-12T02:09:56.548Z,99.99
2019-02-12T02:10:56.541Z,99.99
2019-02-12T02:11:56.525Z,99.99
2019-02-12T02:12:56.518Z,99.99
2019-02-12T02:13:56.504Z,99.99
2019-02-12T02:14:56.493Z,99.99
2019-02-12T02:15:56.483Z,99.99
2019-02-12T02:16:56.472Z,99.99
2019-02-12T02:17:56.460Z,99.99
2019-02-12T02:18:56.480Z,99.86
2019-02-12T02:19:56.436Z,99.99
2019-02-12T02:20:56.427Z,99.99
2019-02-12T02:21:56.416Z,99.99
2019-02-12T02:22:56.405Z,99.96
2019-02-12T02:23:56.395Z,99.99
2019-02-12T02:24:56.383Z,99.99
2019-02-12T02:25:56.373Z,99.99
2019-02-12T02:26:56.364Z,99.99
2019-02-12T02:27:56.351Z,99.99
2019-02-12T02:28:56.338Z,99.99
2019-02-12T02:29:56.329Z,99.99
2019-02-12T02:30:56.321Z,99.99
2019-02-12T02:31:56.305Z,99.99
2019-02-12T02:32:56.310Z,99.99
2019-02-12T02:33:56.286Z,99.99
2019-02-12T02:34:56.279Z,99.99
2019-02-12T02:35:56.300Z,99.99
2019-02-12T02:36:56.251Z,99.99
2019-02-12T02:37:56.255Z,99.99
2019-02-12T02:38:56.231Z,99.99
2019-02-12T02:39:56.218Z,99.99
2019-02-12T02:40:56.207Z,99.99
2019-02-12T02:41:56.196Z,99.99
2019-02-12T02:42:56.186Z,99.99
2019-02-12T02:43:56.175Z,99.99
2019-02-12T02:44:56.167Z,99.99
2019-02-12T02:45:56.152Z,99.99
2019-02-12T02:46:56.148Z,99.99
2019-02-12T02:47:56.138Z,99.99
2019-02-12T02:48:56.123Z,99.99
2019-02-12T02:49:56.109Z,99.99
2019-02-12T02:50:56.099Z,99.99
2019-02-12T02:51:56.087Z,99.86
2019-02-12T02:52:56.086Z,99.99
2019-02-12T02:53:56.067Z,99.99
2019-02-12T02:54:56.057Z,99.99
2019-02-12T02:55:56.046Z,99.99
2019-02-12T02:56:56.047Z,99.99
2019-02-12T02:57:56.026Z,99.99
2019-02-12T02:58:56.021Z,99.99
2019-02-12T02:59:56.002Z,99.99
2019-02-12T03:00:55.989Z,99.99
2019-02-12T03:01:55.978Z,99.99
2019-02-12T03:02:55.973Z,99.99
2019-02-12T03:03:55.977Z,99.99
2019-02-12T03:04:55.952Z,99.99
2019-02-12T03:05:55.936Z,99.99
2019-02-12T03:06:55.927Z,99.99
2019-02-12T03:07:55.914Z,99.99
2019-02-12T03:08:55.911Z,99.99
2019-02-12T03:09:55.894Z,99.99
2019-02-12T03:10:55.884Z,99.99
2019-02-12T03:11:55.870Z,99.99
2019-02-12T03:12:55.859Z,99.99
2019-02-12T03:13:55.851Z,99.99
2019-02-12T03:14:55.848Z,99.99
2019-02-12T03:15:55.826Z,99.99
2019-02-12T03:16:55.816Z,99.99
2019-02-12T03:17:55.807Z,99.99
2019-02-12T03:18:55.798Z,99.99
2019-02-12T03:19:55.789Z,99.99
2019-02-12T03:20:55.776Z,99.99
2019-02-12T03:22:03.417Z,99.99
2019-02-12T03:22:55.751Z,99.99
2019-02-12T03:23:55.754Z,99.99
2019-02-12T03:24:55.729Z,99.99
2019-02-12T03:25:55.719Z,99.99
2019-02-12T03:26:55.709Z,99.99
2019-02-12T03:27:55.698Z,99.99
2019-02-12T03:28:55.686Z,99.99
2019-02-12T03:29:55.682Z,99.99
2019-02-12T03:30:55.664Z,99.99
2019-02-12T03:31:55.654Z,99.99
2019-02-12T03:32:55.643Z,99.99
2019-02-12T03:33:55.634Z,99.99
2019-02-12T03:34:55.620Z,99.99
2019-02-12T03:35:55.609Z,99.99
2019-02-12T03:36:55.599Z,99.99
2019-02-12T03:37:55.584Z,99.99
2019-02-12T03:38:55.576Z,99.99
2019-02-12T03:39:55.565Z,99.99
2019-02-12T03:40:55.558Z,99.99
2019-02-12T03:41:55.541Z,99.99
2019-02-12T03:42:55.534Z,99.99
2019-02-12T03:43:55.521Z,99.99
2019-02-12T03:44:55.512Z,99.99
2019-02-12T03:45:55.499Z,99.99
2019-02-12T03:46:55.486Z,99.99
2019-02-12T03:47:55.474Z,99.99
2019-02-12T03:48:55.465Z,99.99
2019-02-12T03:49:55.454Z,99.99
2019-02-12T03:50:55.453Z,99.99
2019-02-12T03:51:55.428Z,99.99
2019-02-12T03:52:55.420Z,99.99
2019-02-12T03:53:55.409Z,99.99
2019-02-12T03:54:55.400Z,99.99
2019-02-12T03:55:55.387Z,99.99
2019-02-12T03:56:55.375Z,99.99
2019-02-12T03:57:55.364Z,99.99
2019-02-12T03:58:55.354Z,99.99
2019-02-12T03:59:55.343Z,99.99
2019-02-12T04:00:55.336Z,99.99
2019-02-12T04:01:55.323Z,99.99
2019-02-12T04:02:55.308Z,99.99
2019-02-12T04:03:55.297Z,99.99
2019-02-12T04:04:55.285Z,99.99
2019-02-12T04:05:55.274Z,99.99
2019-02-12T04:06:55.265Z,99.99
2019-02-12T04:07:55.252Z,99.99
2019-02-12T04:08:55.241Z,99.99
2019-02-12T04:09:55.230Z,99.99
2019-02-12T04:10:55.218Z,99.99
2019-02-12T04:11:55.206Z,99.99
2019-02-12T04:12:55.203Z,99.99
2019-02-12T04:13:55.184Z,99.99
2019-02-12T04:14:55.172Z,99.99
2019-02-12T04:15:55.163Z,99.99
2019-02-12T04:16:55.153Z,99.99
2019-02-12T04:17:55.140Z,99.99
2019-02-12T04:18:55.141Z,99.99
2019-02-12T04:19:55.119Z,99.99
2019-02-12T04:20:55.103Z,99.99
2019-02-12T04:21:55.098Z,99.99
2019-02-12T04:22:55.094Z,99.99
2019-02-12T04:23:55.073Z,99.99
2019-02-12T04:24:55.061Z,99.99
2019-02-12T04:25:55.061Z,99.99
2019-02-12T04:26:55.046Z,99.99
2019-02-12T04:27:55.514Z,99.99
2019-02-12T04:28:55.018Z,99.99
2019-02-12T04:29:55.010Z,99.99
2019-02-12T04:30:54.995Z,99.99
2019-02-12T04:31:54.993Z,99.99
2019-02-12T04:32:54.971Z,99.99
2019-02-12T04:33:54.963Z,99.99
2019-02-12T04:34:54.951Z,99.99
2019-02-12T04:35:54.941Z,99.99
2019-02-12T04:36:54.931Z,99.99
2019-02-12T04:37:54.916Z,99.99
2019-02-12T04:38:54.909Z,99.99
2019-02-12T04:39:54.899Z,99.99
2019-02-12T04:40:54.882Z,99.99
2019-02-12T04:41:54.877Z,99.99
2019-02-12T04:42:54.867Z,99.99
2019-02-12T04:43:54.848Z,99.99
2019-02-12T04:44:54.837Z,99.99
2019-02-12T04:45:54.830Z,99.99
2019-02-12T04:46:54.822Z,99.99
2019-02-12T04:47:54.804Z,99.99
2019-02-12T04:48:54.792Z,99.99
2019-02-12T04:49:54.781Z,99.99
2019-02-12T04:50:54.772Z,99.99
2019-02-12T04:51:54.761Z,99.99
2019-02-12T04:52:54.752Z,99.99
2019-02-12T04:53:54.746Z,99.99
2019-02-12T04:54:54.726Z,99.99
2019-02-12T04:55:54.715Z,99.99
2019-02-12T04:56:54.707Z,99.99
2019-02-12T04:57:54.696Z,99.99
2019-02-12T04:58:54.684Z,99.99
2019-02-12T04:59:54.676Z,99.99
2019-02-12T05:00:54.659Z,99.99
2019-02-12T05:01:54.655Z,99.99
2019-02-12T05:02:54.638Z,99.99
2019-02-12T05:03:54.626Z,99.99
2019-02-12T05:04:54.615Z,99.99
2019-02-12T05:05:54.609Z,99.99
2019-02-12T05:06:54.593Z,99.99
2019-02-12T05:07:54.581Z,99.99
2019-02-12T05:08:54.570Z,99.99
2019-02-12T05:09:54.564Z,99.99
2019-02-12T05:10:54.547Z,99.99
2019-02-12T05:11:54.537Z,99.99
2019-02-12T05:12:54.526Z,99.99
2019-02-12T05:13:54.514Z,99.99
2019-02-12T05:14:54.503Z,99.99
2019-02-12T05:15:54.499Z,99.99
2019-02-12T05:16:54.481Z,99.99
2019-02-12T05:17:54.471Z,99.99
2019-02-12T05:18:55.934Z,99.99
2019-02-12T05:19:54.449Z,99.99
2019-02-12T05:20:54.436Z,99.99
2019-02-12T05:21:54.430Z,99.99
2019-02-12T05:22:54.414Z,99.99
2019-02-12T05:23:54.424Z,99.99
2019-02-12T05:24:54.391Z,99.99
2019-02-12T05:25:54.383Z,99.99
2019-02-12T05:26:54.369Z,99.99
2019-02-12T05:27:54.359Z,99.99
2019-02-12T05:28:54.350Z,99.99
2019-02-12T05:29:54.336Z,99.99
2019-02-12T05:30:54.329Z,99.99
2019-02-12T05:31:54.315Z,99.99
2019-02-12T05:32:54.305Z,99.99
2019-02-12T05:33:54.333Z,99.99
2019-02-12T05:34:55.874Z,99.99
2019-02-12T05:35:54.273Z,99.99
2019-02-12T05:36:54.258Z,99.99
2019-02-12T05:37:54.248Z,99.99
2019-02-12T05:38:54.240Z,99.99
2019-02-12T05:39:54.225Z,99.99
2019-02-12T05:40:54.231Z,99.99
2019-02-12T05:41:54.206Z,99.99
2019-02-12T05:42:54.192Z,99.99
2019-02-12T05:43:54.181Z,99.99
2019-02-12T05:44:54.170Z,99.99
2019-02-12T05:45:54.158Z,99.99
2019-02-12T05:46:54.146Z,99.99
2019-02-12T05:47:54.139Z,99.99
2019-02-12T05:48:54.122Z,99.99
2019-02-12T05:49:54.122Z,99.99
2019-02-12T05:50:54.149Z,99.99
2019-02-12T05:51:54.327Z,99.99
2019-02-12T05:52:55.108Z,99.99
2019-02-12T05:53:54.071Z,99.99
2019-02-12T05:54:54.056Z,99.99
2019-02-12T05:55:54.045Z,99.99
2019-02-12T05:56:54.035Z,99.99
2019-02-12T05:57:54.023Z,99.99
2019-02-12T05:58:54.015Z,99.99
2019-02-12T05:59:54.002Z,99.99
2019-02-12T06:00:53.991Z,99.99
2019-02-12T06:01:53.977Z,99.99
2019-02-12T06:02:53.969Z,99.99
2019-02-12T06:03:53.956Z,99.99
2019-02-12T06:04:53.946Z,99.99
2019-02-12T06:05:54.002Z,99.99
2019-02-12T06:06:53.925Z,99.99
2019-02-12T06:07:53.912Z,99.99
2019-02-12T06:08:53.903Z,99.99
2019-02-12T06:09:53.892Z,99.99
2019-02-12T06:10:53.885Z,99.99
2019-02-12T06:11:53.865Z,99.99
2019-02-12T06:12:53.862Z,99.99
2019-02-12T06:13:53.847Z,99.99
2019-02-12T06:14:53.834Z,99.99
2019-02-12T06:15:53.827Z,99.99
2019-02-12T06:16:53.812Z,99.99
2019-02-12T06:17:53.805Z,99.99
2019-02-12T06:18:53.792Z,99.99
2019-02-12T06:19:53.780Z,99.99
2019-02-12T06:20:53.767Z,99.99
2019-02-12T06:21:53.757Z,99.99
2019-02-12T06:23:03.112Z,99.99
2019-02-12T06:23:53.735Z,99.99
2019-02-12T06:24:53.725Z,99.99
2019-02-12T06:25:53.714Z,99.99
2019-02-12T06:26:53.704Z,99.99
2019-02-12T06:27:53.692Z,99.99
2019-02-12T06:28:53.680Z,99.99
2019-02-12T06:29:53.668Z,99.99
2019-02-12T06:30:53.660Z,99.99
2019-02-12T06:31:53.647Z,99.99
2019-02-12T06:32:53.636Z,99.99
2019-02-12T06:33:53.626Z,99.99
2019-02-12T06:34:53.616Z,99.99
2019-02-12T06:35:53.603Z,99.99
2019-02-12T06:36:53.654Z,99.99
2019-02-12T06:37:53.580Z,99.99
2019-02-12T06:38:53.570Z,99.99
2019-02-12T06:39:53.559Z,99.99
2019-02-12T06:40:53.550Z,99.99
2019-02-12T06:41:53.540Z,99.99
2019-02-12T06:42:53.528Z,99.99
2019-02-12T06:43:53.516Z,99.99
2019-02-12T06:44:53.505Z,99.99
2019-02-12T06:45:53.497Z,99.99
2019-02-12T06:46:53.488Z,99.99
2019-02-12T06:47:53.471Z,99.99
2019-02-12T06:48:53.462Z,99.99
2019-02-12T06:49:53.452Z,99.99
2019-02-12T06:50:53.439Z,99.99
2019-02-12T06:51:53.428Z,99.99
2019-02-12T06:52:53.420Z,99.99
2019-02-12T06:53:53.412Z,99.99
2019-02-12T06:54:53.397Z,99.99
2019-02-12T06:55:53.390Z,99.99
2019-02-12T06:56:53.377Z,99.99
2019-02-12T06:57:53.366Z,99.99
2019-02-12T06:58:53.353Z,99.99
2019-02-12T06:59:53.348Z,99.99
2019-02-12T07:00:53.333Z,99.99
2019-02-12T07:01:53.321Z,99.99
2019-02-12T07:02:53.313Z,99.99
2019-02-12T07:03:53.300Z,99.99
2019-02-12T07:04:53.287Z,99.99
2019-02-12T07:05:53.277Z,99.99
2019-02-12T07:06:53.273Z,99.99
2019-02-12T07:07:53.257Z,99.99
2019-02-12T07:08:53.245Z,99.99
2019-02-12T07:09:53.253Z,99.99
2019-02-12T07:10:53.223Z,99.99
2019-02-12T07:11:53.210Z,99.99
2019-02-12T07:12:53.207Z,99.99
2019-02-12T07:13:53.193Z,99.99
2019-02-12T07:14:53.181Z,99.99
2019-02-12T07:15:53.168Z,99.99
2019-02-12T07:16:53.159Z,99.99
2019-02-12T07:17:53.149Z,99.99
2019-02-12T07:18:54.572Z,99.99
2019-02-12T07:19:53.126Z,99.99
2019-02-12T07:20:53.114Z,99.99
2019-02-12T07:21:53.106Z,99.99
2019-02-12T07:22:53.098Z,99.99
2019-02-12T07:23:53.087Z,99.99
2019-02-12T07:24:53.073Z,99.99
2019-02-12T07:25:55.125Z,99.99
2019-02-12T07:26:53.052Z,99.99
2019-02-12T07:27:53.044Z,99.99
2019-02-12T07:28:53.033Z,99.99
2019-02-12T07:29:53.098Z,99.99
2019-02-12T07:30:53.007Z,99.99
2019-02-12T07:31:52.999Z,99.99
2019-02-12T07:32:52.988Z,99.99
2019-02-12T07:33:52.980Z,99.99
2019-02-12T07:34:52.969Z,99.99
2019-02-12T07:35:52.954Z,99.99
2019-02-12T07:36:52.947Z,99.99
2019-02-12T07:37:52.937Z,99.99
2019-02-12T07:38:52.923Z,99.99
2019-02-12T07:39:52.913Z,99.99
2019-02-12T07:40:52.902Z,99.99
2019-02-12T07:41:52.893Z,99.99
2019-02-12T07:42:52.887Z,99.99
2019-02-12T07:43:52.870Z,99.99
2019-02-12T07:44:52.862Z,99.99
2019-02-12T07:45:52.849Z,99.99
2019-02-12T07:46:52.838Z,99.99
2019-02-12T07:47:52.828Z,99.99
2019-02-12T07:48:52.839Z,99.99
2019-02-12T07:49:52.814Z,99.99
2019-02-12T07:50:52.796Z,99.99
2019-02-12T07:51:52.784Z,99.99
2019-02-12T07:52:52.774Z,99.99
2019-02-12T07:53:52.763Z,99.99
2019-02-12T07:54:52.755Z,99.99
2019-02-12T07:55:52.744Z,99.99
2019-02-12T07:56:52.734Z,99.99
2019-02-12T07:57:52.723Z,99.99
2019-02-12T07:58:52.725Z,99.99
2019-02-12T07:59:52.706Z,99.99
2019-02-12T08:00:52.692Z,99.99
2019-02-12T08:01:52.682Z,99.99
2019-02-12T08:02:52.669Z,99.99
2019-02-12T08:03:52.666Z,99.99
2019-02-12T08:04:52.650Z,99.99
2019-02-12T08:05:52.642Z,99.99
2019-02-12T08:06:52.628Z,99.99
2019-02-12T08:07:52.619Z,99.99
2019-02-12T08:08:52.612Z,99.99
2019-02-12T08:09:52.601Z,99.99
2019-02-12T08:10:52.589Z,99.99
2019-02-12T08:11:52.575Z,99.99
2019-02-12T08:12:52.569Z,99.99
2019-02-12T08:13:52.556Z,99.99
2019-02-12T08:14:52.550Z,99.99
2019-02-12T08:15:52.532Z,99.99
2019-02-12T08:16:52.524Z,99.99
2019-02-12T08:17:52.513Z,99.99
2019-02-12T08:18:52.505Z,99.99
2019-02-12T08:19:52.492Z,99.99
2019-02-12T08:20:52.487Z,99.99
2019-02-12T08:21:52.476Z,99.99
2019-02-12T08:22:52.460Z,99.99
2019-02-12T08:23:52.448Z,99.99
2019-02-12T08:24:52.441Z,99.99
2019-02-12T08:25:52.436Z,99.99
2019-02-12T08:26:52.417Z,99.99
2019-02-12T08:27:52.414Z,99.99
2019-02-12T08:28:52.401Z,99.99
2019-02-12T08:29:52.392Z,99.99
2019-02-12T08:30:52.378Z,99.99
2019-02-12T08:31:52.369Z,99.99
2019-02-12T08:32:52.360Z,99.99
2019-02-12T08:33:52.496Z,99.99
2019-02-12T08:34:52.341Z,99.99
2019-02-12T08:35:57.230Z,99.99
2019-02-12T08:36:52.317Z,99.99
2019-02-12T08:37:52.309Z,99.99
2019-02-12T08:38:52.296Z,99.99
2019-02-12T08:39:52.287Z,99.99
2019-02-12T08:40:52.275Z,99.99
2019-02-12T08:41:52.261Z,99.99
2019-02-12T08:42:52.259Z,99.99
2019-02-12T08:43:52.246Z,99.63
2019-02-12T08:44:52.239Z,99.72
2019-02-12T08:45:52.226Z,99.91
2019-02-12T08:46:53.222Z,99.82
2019-02-12T08:47:52.210Z,99.06
2019-02-12T08:48:52.195Z,98.39
2019-02-12T08:49:52.183Z,98.11
2019-02-12T08:50:52.176Z,98.49
2019-02-12T08:51:52.164Z,98.49
2019-02-12T08:52:52.152Z,98.49
2019-02-12T08:53:52.146Z,98.39
2019-02-12T08:54:52.136Z,98.11
2019-02-12T08:55:52.125Z,98.21
2019-02-12T08:56:52.114Z,98.30
2019-02-12T08:57:52.104Z,97.64
2019-02-12T08:58:52.093Z,98.11
2019-02-12T08:59:52.085Z,98.21
2019-02-12T09:00:52.076Z,98.02
2019-02-12T09:01:52.144Z,97.35
2019-02-12T09:02:52.096Z,96.78
2019-02-12T09:03:52.042Z,97.07
2019-02-12T09:04:52.035Z,97.26
2019-02-12T09:05:52.025Z,96.59
2019-02-12T09:06:52.015Z,96.36
2019-02-12T09:07:52.006Z,97.07
2019-02-12T09:08:51.991Z,96.41
2019-02-12T09:09:51.983Z,96.88
2019-02-12T09:10:51.982Z,97.07
2019-02-12T09:11:51.962Z,97.35
2019-02-12T09:12:51.952Z,97.26
2019-02-12T09:13:51.943Z,97.07
2019-02-12T09:14:51.935Z,96.41
2019-02-12T09:15:51.925Z,97.07
2019-02-12T09:16:51.915Z,96.97
2019-02-12T09:17:51.906Z,97.26
2019-02-12T09:18:51.894Z,97.16
2019-02-12T09:19:51.884Z,96.97
2019-02-12T09:20:51.878Z,96.41
2019-02-12T09:21:51.865Z,96.12
2019-02-12T09:22:51.855Z,97.16
2019-02-12T09:24:00.136Z,96.59
2019-02-12T09:24:51.838Z,96.31
2019-02-12T09:25:51.825Z,96.50
2019-02-12T09:26:51.817Z,95.98
2019-02-12T09:27:51.807Z,95.79
2019-02-12T09:28:51.805Z,95.69
2019-02-12T09:29:51.787Z,95.55
2019-02-12T09:30:51.869Z,95.17
2019-02-12T09:31:51.763Z,95.79
2019-02-12T09:32:51.751Z,95.98
2019-02-12T09:33:51.744Z,95.12
2019-02-12T09:34:51.737Z,95.03
2019-02-12T09:35:51.726Z,94.27
2019-02-12T09:36:51.717Z,94.56
2019-02-12T09:37:51.708Z,94.08
2019-02-12T09:38:51.694Z,93.99
2019-02-12T09:39:51.683Z,94.08
2019-02-12T09:40:51.674Z,93.51
2019-02-12T09:41:51.664Z,91.80
2019-02-12T09:42:51.656Z,91.33
2019-02-12T09:43:51.645Z,91.38
2019-02-12T09:44:51.634Z,90.62
2019-02-12T09:45:51.627Z,90.24
2019-02-12T09:46:51.615Z,89.76
2019-02-12T09:47:51.607Z,88.96
2019-02-12T09:48:51.598Z,87.92
2019-02-12T09:49:51.585Z,88.48
2019-02-12T09:50:51.576Z,88.77
2019-02-12T09:51:51.566Z,88.87
2019-02-12T09:52:51.562Z,89.25
2019-02-12T09:53:51.548Z,89.06
2019-02-12T09:54:51.540Z,88.77
2019-02-12T09:55:51.549Z,88.72
2019-02-12T09:56:51.517Z,88.62
2019-02-12T09:57:51.509Z,87.77
2019-02-12T09:58:51.500Z,87.30
2019-02-12T09:59:51.489Z,86.87
2019-02-12T10:00:51.481Z,86.78
2019-02-12T10:01:51.474Z,87.25
2019-02-12T10:02:51.460Z,87.35
2019-02-12T10:03:51.451Z,87.92
2019-02-12T10:04:51.439Z,87.92
2019-02-12T10:05:51.433Z,87.92
2019-02-12T10:06:51.423Z,87.82
2019-02-12T10:07:51.601Z,86.78
2019-02-12T10:08:51.405Z,87.06
2019-02-12T10:09:51.396Z,86.97
2019-02-12T10:10:51.384Z,87.20
2019-02-12T10:11:52.183Z,87.11
2019-02-12T10:12:51.367Z,86.82
2019-02-12T10:13:51.358Z,86.16
2019-02-12T10:14:51.347Z,86.16
2019-02-12T10:15:51.335Z,86.25
2019-02-12T10:16:51.326Z,85.87
2019-02-12T10:17:51.318Z,85.40
2019-02-12T10:18:51.308Z,85.21
2019-02-12T10:19:51.297Z,85.11
2019-02-12T10:20:51.285Z,85.02
2019-02-12T10:21:51.289Z,85.21
2019-02-12T10:22:51.268Z,85.02
2019-02-12T10:23:51.261Z,85.11
2019-02-12T10:24:51.252Z,85.30
2019-02-12T10:25:51.240Z,84.45
2019-02-12T10:26:51.230Z,83.59
2019-02-12T10:27:51.219Z,83.22
2019-02-12T10:28:51.210Z,83.12
2019-02-12T10:29:51.212Z,83.40
2019-02-12T10:30:51.193Z,83.31
2019-02-12T10:31:51.183Z,84.07
2019-02-12T10:32:51.174Z,83.59
2019-02-12T10:33:51.167Z,83.31
2019-02-12T10:34:51.156Z,83.40
2019-02-12T10:35:51.145Z,83.22
2019-02-12T10:36:51.132Z,83.31
2019-02-12T10:37:51.133Z,82.74
2019-02-12T10:38:51.124Z,82.27
2019-02-12T10:39:51.104Z,80.94
2019-02-12T10:40:51.100Z,81.32
2019-02-12T10:41:51.087Z,81.13
2019-02-12T10:42:51.078Z,82.08
2019-02-12T10:43:51.067Z,80.84
2019-02-12T10:44:51.059Z,80.56
2019-02-12T10:45:51.049Z,80.56
2019-02-12T10:46:51.041Z,80.94
2019-02-12T10:47:51.030Z,80.84
2019-02-12T10:48:52.698Z,79.99
2019-02-12T10:49:51.013Z,80.08
2019-02-12T10:50:51.005Z,79.90
2019-02-12T10:51:51.118Z,80.65
2019-02-12T10:52:50.990Z,80.94
2019-02-12T10:53:50.975Z,81.04
2019-02-12T10:54:50.970Z,80.88
2019-02-12T10:55:50.954Z,81.36
2019-02-12T10:56:50.950Z,81.65
2019-02-12T10:57:50.941Z,81.36
2019-02-12T10:58:50.927Z,81.74
2019-02-12T10:59:50.926Z,81.36
2019-02-12T11:00:50.915Z,81.13
2019-02-12T11:01:50.900Z,82.27
2019-02-12T11:02:50.894Z,82.36
2019-02-12T11:03:50.883Z,82.36
2019-02-12T11:04:50.878Z,81.88
2019-02-12T11:05:50.866Z,81.88
2019-02-12T11:06:50.855Z,82.36
2019-02-12T11:07:50.845Z,82.08
2019-02-12T11:08:50.837Z,82.36
2019-02-12T11:09:50.831Z,82.17
2019-02-12T11:10:50.826Z,81.88
2019-02-12T11:11:50.811Z,81.51
2019-02-12T11:12:50.800Z,80.94
2019-02-12T11:13:50.791Z,80.18
2019-02-12T11:14:50.783Z,79.99
2019-02-12T11:15:50.775Z,79.90
2019-02-12T11:16:50.763Z,80.08
2019-02-12T11:17:50.753Z,80.08
2019-02-12T11:18:50.745Z,80.84
2019-02-12T11:19:50.733Z,81.04
2019-02-12T11:20:50.725Z,80.75
2019-02-12T11:21:50.717Z,79.23
2019-02-12T11:22:50.708Z,78.75
2019-02-12T11:23:50.701Z,79.71
2019-02-12T11:24:50.698Z,79.52
2019-02-12T11:25:50.681Z,78.75
2019-02-12T11:26:50.671Z,79.14
2019-02-12T11:27:50.660Z,78.47
2019-02-12T11:28:50.650Z,78.56
2019-02-12T11:29:50.643Z,78.47
2019-02-12T11:30:50.638Z,78.75
2019-02-12T11:31:50.623Z,77.81
2019-02-12T11:32:50.613Z,78.00
2019-02-12T11:33:50.608Z,77.71
2019-02-12T11:34:50.597Z,77.62
2019-02-12T11:35:50.595Z,78.09
2019-02-12T11:36:50.578Z,79.04
2019-02-12T11:37:50.569Z,78.47
2019-02-12T11:38:50.563Z,78.19
2019-02-12T11:39:50.550Z,77.90
2019-02-12T11:40:50.542Z,78.75
2019-02-12T11:41:50.534Z,78.42
2019-02-12T11:42:50.523Z,78.85
2019-02-12T11:43:50.522Z,77.75
2019-02-12T11:44:50.507Z,77.94
2019-02-12T11:45:50.500Z,77.75
2019-02-12T11:46:50.487Z,77.47
2019-02-12T11:47:50.478Z,76.71
2019-02-12T11:48:50.467Z,75.95
2019-02-12T11:49:50.457Z,75.47
2019-02-12T11:50:50.450Z,74.33
2019-02-12T11:51:50.438Z,74.43
2019-02-12T11:52:50.431Z,74.05
2019-02-12T11:53:50.423Z,74.62
2019-02-12T11:54:50.418Z,74.24
2019-02-12T11:55:50.404Z,73.67
2019-02-12T11:56:50.395Z,73.76
2019-02-12T11:57:50.385Z,74.05
2019-02-12T11:58:50.377Z,74.43
2019-02-12T11:59:50.365Z,73.38
2019-02-12T12:00:50.356Z,72.81
2019-02-12T12:01:50.345Z,72.53
2019-02-12T12:02:50.340Z,72.91
2019-02-12T12:03:50.335Z,73.48
2019-02-12T12:04:50.322Z,73.38
2019-02-12T12:05:50.331Z,73.96
2019-02-12T12:06:50.304Z,74.33
2019-02-12T12:07:50.294Z,73.67
2019-02-12T12:08:50.286Z,74.43
2019-02-12T12:09:50.273Z,74.33
2019-02-12T12:10:50.267Z,74.43
2019-02-12T12:11:50.256Z,74.90
2019-02-12T12:12:50.251Z,74.27
2019-02-12T12:13:50.246Z,74.05
2019-02-12T12:14:50.231Z,73.99
2019-02-12T12:15:50.223Z,74.75
2019-02-12T12:16:50.213Z,73.57
2019-02-12T12:17:50.206Z,72.15
2019-02-12T12:18:50.195Z,71.86
2019-02-12T12:19:50.187Z,71.77
2019-02-12T12:20:50.228Z,72.06
2019-02-12T12:21:50.167Z,71.86
2019-02-12T12:22:50.158Z,72.15
2019-02-12T12:23:50.152Z,72.40
2019-02-12T12:24:51.595Z,72.40
2019-02-12T12:25:50.131Z,73.72
2019-02-12T12:26:50.121Z,73.82
2019-02-12T12:27:50.113Z,74.58
2019-02-12T12:28:50.106Z,74.77
2019-02-12T12:29:50.115Z,75.15
2019-02-12T12:30:50.095Z,75.62
2019-02-12T12:31:50.078Z,76.29
2019-02-12T12:32:50.068Z,75.91
2019-02-12T12:33:50.058Z,75.62
2019-02-12T12:34:50.051Z,75.95
2019-02-12T12:35:50.040Z,76.23
2019-02-12T12:36:50.029Z,75.85
2019-02-12T12:37:50.022Z,75.85
2019-02-12T12:38:50.015Z,75.76
2019-02-12T12:39:50.003Z,75.09
2019-02-12T12:40:49.994Z,74.81
2019-02-12T12:41:49.989Z,74.47
2019-02-12T12:42:49.977Z,74.43
2019-02-12T12:43:49.967Z,73.80
2019-02-12T12:44:49.958Z,74.47
2019-02-12T12:45:49.950Z,74.75
2019-02-12T12:46:49.939Z,73.48
2019-02-12T12:47:49.932Z,73.48
2019-02-12T12:48:49.923Z,73.96
2019-02-12T12:49:49.914Z,74.71
2019-02-12T12:50:49.904Z,74.81
2019-02-12T12:51:49.897Z,75.28
2019-02-12T12:52:49.886Z,74.71